sensor_id;sensor_type;location;lat;lon;timestamp;pressure;altitude;pressure_sealevel;temperature;humidity
25869;BME280;13688;53.154;18.136;2023-03-03T00:01:23;101453.20;;;-3.27;100.00
25869;BME280;13688;53.154;18.136;2023-03-03T00:06:50;101450.60;;;-3.31;100.00
25869;BME280;13688;53.154;18.136;2023-03-03T00:12:26;101444.61;;;-3.46;100.00
25869;BME280;13688;53.154;18.136;2023-03-03T00:17:52;101436.74;;;-3.47;100.00
25869;BME280;13688;53.154;18.136;2023-03-03T00:23:36;101428.94;;;-3.56;100.00
25869;BME280;13688;53.154;18.136;2023-03-03T00:29:01;101420.23;;;-3.64;100.00
25869;BME280;13688;53.154;18.136;2023-03-03T00:34:46;101408.77;;;-3.57;100.00
25869;BME280;13688;53.154;18.136;2023-03-03T00:40:35;101411.41;;;-3.56;100.00
25869;BME280;13688;53.154;18.136;2023-03-03T00:46:02;101402.55;;;-3.49;100.00
25869;BME280;13688;53.154;18.136;2023-03-03T00:51:35;101406.09;;;-3.51;100.00
25869;BME280;13688;53.154;18.136;2023-03-03T00:56:59;101391.10;;;-3.41;100.00
25869;BME280;13688;53.154;18.136;2023-03-03T01:02:23;101380.55;;;-3.37;100.00
25869;BME280;13688;53.154;18.136;2023-03-03T01:07:48;101387.58;;;-3.37;100.00
25869;BME280;13688;53.154;18.136;2023-03-03T01:13:13;101400.69;;;-3.34;100.00
25869;BME280;13688;53.154;18.136;2023-03-03T01:18:40;101404.20;;;-3.35;100.00
25869;BME280;13688;53.154;18.136;2023-03-03T01:24:03;101400.70;;;-3.36;100.00
25869;BME280;13688;53.154;18.136;2023-03-03T01:29:29;101393.70;;;-3.37;100.00
25869;BME280;13688;53.154;18.136;2023-03-03T01:34:53;101400.80;;;-3.48;100.00
25869;BME280;13688;53.154;18.136;2023-03-03T01:40:21;101389.41;;;-3.46;100.00
25869;BME280;13688;53.154;18.136;2023-03-03T01:51:34;101388.52;;;-3.44;100.00
25869;BME280;13688;53.154;18.136;2023-03-03T01:57:03;101367.53;;;-3.51;100.00
25869;BME280;13688;53.154;18.136;2023-03-03T02:02:31;101372.75;;;-3.48;100.00
25869;BME280;13688;53.154;18.136;2023-03-03T02:07:56;101366.70;;;-3.54;100.00
25869;BME280;13688;53.154;18.136;2023-03-03T02:13:21;101356.20;;;-3.56;100.00
25869;BME280;13688;53.154;18.136;2023-03-03T02:18:45;101360.64;;;-3.62;100.00
25869;BME280;13688;53.154;18.136;2023-03-03T02:24:21;101358.92;;;-3.68;100.00
25869;BME280;13688;53.154;18.136;2023-03-03T02:29:51;101351.06;;;-3.69;100.00
25869;BME280;13688;53.154;18.136;2023-03-03T02:35:36;101353.73;;;-3.72;100.00
25869;BME280;13688;53.154;18.136;2023-03-03T02:46:50;101325.67;;;-3.70;100.00
25869;BME280;13688;53.154;18.136;2023-03-03T02:52:16;101320.45;;;-3.73;100.00
25869;BME280;13688;53.154;18.136;2023-03-03T02:57:41;101330.88;;;-3.64;100.00
25869;BME280;13688;53.154;18.136;2023-03-03T03:03:06;101329.10;;;-3.62;100.00
25869;BME280;13688;53.154;18.136;2023-03-03T03:08:30;101318.61;;;-3.64;100.00
25869;BME280;13688;53.154;18.136;2023-03-03T03:13:54;101310.64;;;-3.58;100.00
25869;BME280;13688;53.154;18.136;2023-03-03T03:19:19;101314.16;;;-3.59;100.00
25869;BME280;13688;53.154;18.136;2023-03-03T03:24:44;101317.70;;;-3.61;100.00
25869;BME280;13688;53.154;18.136;2023-03-03T03:30:09;101317.70;;;-3.61;100.00
25869;BME280;13688;53.154;18.136;2023-03-03T03:35:35;101304.53;;;-3.57;100.00
25869;BME280;13688;53.154;18.136;2023-03-03T03:40:59;101287.08;;;-3.64;100.00
25869;BME280;13688;53.154;18.136;2023-03-03T03:46:24;101298.48;;;-3.68;100.00
25869;BME280;13688;53.154;18.136;2023-03-03T03:51:49;101283.59;;;-3.67;100.00
25869;BME280;13688;53.154;18.136;2023-03-03T03:57:14;101293.20;;;-3.63;100.00
25869;BME280;13688;53.154;18.136;2023-03-03T04:02:39;101300.22;;;-3.64;100.00
25869;BME280;13688;53.154;18.136;2023-03-03T04:08:03;101277.39;;;-3.60;100.00
25869;BME280;13688;53.154;18.136;2023-03-03T04:13:27;101291.37;;;-3.58;100.00
25869;BME280;13688;53.154;18.136;2023-03-03T04:18:52;101308.95;;;-3.62;100.00
25869;BME280;13688;53.154;18.136;2023-03-03T04:24:17;101305.47;;;-3.64;100.00
25869;BME280;13688;53.154;18.136;2023-03-03T04:29:42;101305.43;;;-3.61;100.00
25869;BME280;13688;53.154;18.136;2023-03-03T04:35:06;101320.28;;;-3.58;100.00
25869;BME280;13688;53.154;18.136;2023-03-03T04:40:31;101319.46;;;-3.62;100.00
25869;BME280;13688;53.154;18.136;2023-03-03T04:45:57;101321.22;;;-3.62;100.00
25869;BME280;13688;53.154;18.136;2023-03-03T04:51:22;101316.81;;;-3.60;100.00
25869;BME280;13688;53.154;18.136;2023-03-03T04:56:46;101298.36;;;-3.54;100.00
25869;BME280;13688;53.154;18.136;2023-03-03T05:02:10;101302.66;;;-3.49;100.00
25869;BME280;13688;53.154;18.136;2023-03-03T05:07:35;101305.30;;;-3.47;100.00
25869;BME280;13688;53.154;18.136;2023-03-03T05:13:00;101312.23;;;-3.41;100.00
25869;BME280;13688;53.154;18.136;2023-03-03T05:18:26;101306.06;;;-3.39;100.00
25869;BME280;13688;53.154;18.136;2023-03-03T05:23:51;101313.87;;;-3.31;100.00
25869;BME280;13688;53.154;18.136;2023-03-03T05:29:16;101312.05;;;-3.25;100.00
25869;BME280;13688;53.154;18.136;2023-03-03T05:34:41;101306.72;;;-3.20;100.00
25869;BME280;13688;53.154;18.136;2023-03-03T05:40:05;101297.06;;;-3.20;100.00
25869;BME280;13688;53.154;18.136;2023-03-03T05:45:29;101292.68;;;-3.19;100.00
25869;BME280;13688;53.154;18.136;2023-03-03T05:50:51;101295.27;;;-3.14;100.00
25869;BME280;13688;53.154;18.136;2023-03-03T05:56:14;101283.93;;;-3.18;100.00
25869;BME280;13688;53.154;18.136;2023-03-03T06:01:36;101276.90;;;-3.19;100.00
25869;BME280;13688;53.154;18.136;2023-03-03T06:06:59;101293.53;;;-3.15;100.00
25869;BME280;13688;53.154;18.136;2023-03-03T06:12:21;101308.45;;;-3.16;100.00
25869;BME280;13688;53.154;18.136;2023-03-03T06:17:43;101302.38;;;-3.23;100.00
25869;BME280;13688;53.154;18.136;2023-03-03T06:23:07;101300.59;;;-3.21;100.00
25869;BME280;13688;53.154;18.136;2023-03-03T06:28:29;101304.97;;;-3.18;100.00
25869;BME280;13688;53.154;18.136;2023-03-03T06:33:51;101303.27;;;-3.24;100.00
25869;BME280;13688;53.154;18.136;2023-03-03T06:39:14;101298.81;;;-3.17;100.00
25869;BME280;13688;53.154;18.136;2023-03-03T06:44:36;101297.85;;;-3.11;100.00
25869;BME280;13688;53.154;18.136;2023-03-03T06:50:00;101313.52;;;-3.02;100.00
25869;BME280;13688;53.154;18.136;2023-03-03T06:55:27;101327.55;;;-3.02;100.00
25869;BME280;13688;53.154;18.136;2023-03-03T07:06:22;101348.58;;;-2.99;100.00
25869;BME280;13688;53.154;18.136;2023-03-03T07:11:44;101352.03;;;-2.95;100.00
25869;BME280;13688;53.154;18.136;2023-03-03T07:17:11;101353.74;;;-2.93;100.00
25869;BME280;13688;53.154;18.136;2023-03-03T07:22:35;101352.83;;;-2.90;100.00
25869;BME280;13688;53.154;18.136;2023-03-03T07:28:00;101353.66;;;-2.85;100.00
25869;BME280;13688;53.154;18.136;2023-03-03T07:33:35;101362.25;;;-2.72;100.00
25869;BME280;13688;53.154;18.136;2023-03-03T07:39:29;101375.38;;;-2.68;100.00
25869;BME280;13688;53.154;18.136;2023-03-03T07:44:58;101371.72;;;-2.57;100.00
25869;BME280;13688;53.154;18.136;2023-03-03T07:50:39;101383.08;;;-2.54;100.00
25869;BME280;13688;53.154;18.136;2023-03-03T07:56:16;101382.11;;;-2.47;100.00
25869;BME280;13688;53.154;18.136;2023-03-03T08:01:50;101387.38;;;-2.47;100.00
25869;BME280;13688;53.154;18.136;2023-03-03T08:07:22;101385.58;;;-2.45;100.00
25869;BME280;13688;53.154;18.136;2023-03-03T08:12:48;101392.48;;;-2.36;100.00
25869;BME280;13688;53.154;18.136;2023-03-03T08:18:20;101399.30;;;-2.20;100.00
25869;BME280;13688;53.154;18.136;2023-03-03T08:23:40;101394.92;;;-2.21;100.00
25869;BME280;13688;53.154;18.136;2023-03-03T08:29:03;101398.39;;;-2.19;100.00
25869;BME280;13688;53.154;18.136;2023-03-03T08:34:25;101398.23;;;-2.08;100.00
25869;BME280;13688;53.154;18.136;2023-03-03T08:39:48;101389.52;;;-2.13;100.00
25869;BME280;13688;53.154;18.136;2023-03-03T08:45:10;101388.59;;;-2.09;100.00
25869;BME280;13688;53.154;18.136;2023-03-03T08:50:35;101385.62;;;-1.88;100.00
25869;BME280;13688;53.154;18.136;2023-03-03T08:55:59;101379.39;;;-1.82;100.00
25869;BME280;13688;53.154;18.136;2023-03-03T09:01:21;101382.59;;;-1.65;100.00
25869;BME280;13688;53.154;18.136;2023-03-03T09:06:43;101384.08;;;-1.49;100.00
25869;BME280;13688;53.154;18.136;2023-03-03T09:12:13;101382.02;;;-1.31;100.00
25869;BME280;13688;53.154;18.136;2023-03-03T09:17:38;101370.46;;;-1.26;100.00
25869;BME280;13688;53.154;18.136;2023-03-03T09:28:52;101366.42;;;-0.99;100.00
25869;BME280;13688;53.154;18.136;2023-03-03T09:34:19;101355.94;;;-1.02;100.00
25869;BME280;13688;53.154;18.136;2023-03-03T09:39:57;101347.12;;;-1.01;100.00
25869;BME280;13688;53.154;18.136;2023-03-03T09:45:36;101336.98;;;-0.79;100.00
25869;BME280;13688;53.154;18.136;2023-03-03T09:57:23;101332.25;;;-0.63;100.00
25869;BME280;13688;53.154;18.136;2023-03-03T10:03:00;101333.66;;;-0.47;100.00
25869;BME280;13688;53.154;18.136;2023-03-03T10:08:31;101328.09;;;-0.35;100.00
25869;BME280;13688;53.154;18.136;2023-03-03T10:14:12;101323.62;;;-0.33;100.00
25869;BME280;13688;53.154;18.136;2023-03-03T10:19:50;101326.84;;;-0.20;100.00
25869;BME280;13688;53.154;18.136;2023-03-03T10:48:32;101322.77;;;-0.33;98.61
25869;BME280;13688;53.154;18.136;2023-03-03T11:11:41;101316.48;;;-0.27;95.01
25869;BME280;13688;53.154;18.136;2023-03-03T11:17:19;101319.82;;;-0.21;94.61
25869;BME280;13688;53.154;18.136;2023-03-03T11:23:09;101311.72;;;-0.13;94.38
25869;BME280;13688;53.154;18.136;2023-03-03T11:39:50;101292.89;;;0.01;93.32
25869;BME280;13688;53.154;18.136;2023-03-03T11:45:28;101288.23;;;0.10;92.95
25869;BME280;13688;53.154;18.136;2023-03-03T11:51:11;101278.48;;;0.12;92.34
25869;BME280;13688;53.154;18.136;2023-03-03T11:56:41;101303.73;;;0.24;91.81
25869;BME280;13688;53.154;18.136;2023-03-03T12:14:01;101282.62;;;0.22;90.51
25869;BME280;13688;53.154;18.136;2023-03-03T12:19:37;101289.50;;;0.30;90.37
25869;BME280;13688;53.154;18.136;2023-03-03T12:31:06;101261.64;;;0.49;89.76
25869;BME280;13688;53.154;18.136;2023-03-03T12:48:33;101253.86;;;0.74;87.36
25869;BME280;13688;53.154;18.136;2023-03-03T12:54:13;101265.10;;;0.82;86.70
25869;BME280;13688;53.154;18.136;2023-03-03T13:00:02;101253.50;;;0.86;86.49
25869;BME280;13688;53.154;18.136;2023-03-03T13:17:22;101232.84;;;0.99;84.44
25869;BME280;13688;53.154;18.136;2023-03-03T13:23:07;101218.26;;;1.13;83.84
25869;BME280;13688;53.154;18.136;2023-03-03T13:34:50;101216.24;;;1.22;82.72
25869;BME280;13688;53.154;18.136;2023-03-03T13:40:25;101226.78;;;1.23;82.20
25869;BME280;13688;53.154;18.136;2023-03-03T13:46:10;101212.89;;;1.17;81.50
25869;BME280;13688;53.154;18.136;2023-03-03T13:57:35;101221.07;;;1.37;80.90
25869;BME280;13688;53.154;18.136;2023-03-03T14:03:20;101204.09;;;1.42;80.43
25869;BME280;13688;53.154;18.136;2023-03-03T14:15:25;101193.98;;;1.55;78.81
25869;BME280;13688;53.154;18.136;2023-03-03T14:20:54;101194.30;;;1.44;78.06
25869;BME280;13688;53.154;18.136;2023-03-03T14:26:26;101182.84;;;1.44;77.90
25869;BME280;13688;53.154;18.136;2023-03-03T14:31:50;101187.45;;;1.65;77.96
25869;BME280;13688;53.154;18.136;2023-03-03T14:37:29;101159.47;;;1.57;77.77
25869;BME280;13688;53.154;18.136;2023-03-03T14:42:56;101149.81;;;1.54;77.97
25869;BME280;13688;53.154;18.136;2023-03-03T14:48:25;101150.48;;;1.61;78.25
25869;BME280;13688;53.154;18.136;2023-03-03T14:53:49;101148.56;;;1.66;78.26
25869;BME280;13688;53.154;18.136;2023-03-03T14:59:29;101144.20;;;1.63;78.20
25869;BME280;13688;53.154;18.136;2023-03-03T15:05:05;101134.45;;;1.65;78.01
25869;BME280;13688;53.154;18.136;2023-03-03T15:16:09;101121.33;;;1.61;77.86
25869;BME280;13688;53.154;18.136;2023-03-03T15:21:44;101116.09;;;1.59;78.02
25869;BME280;13688;53.154;18.136;2023-03-03T15:27:12;101109.81;;;1.62;78.19
25869;BME280;13688;53.154;18.136;2023-03-03T15:32:46;101101.11;;;1.58;78.32
25869;BME280;13688;53.154;18.136;2023-03-03T15:38:17;101117.12;;;1.55;78.52
25869;BME280;13688;53.154;18.136;2023-03-03T15:55:15;101104.19;;;1.46;79.14
25869;BME280;13688;53.154;18.136;2023-03-03T16:00:45;101078.81;;;1.39;79.29
25869;BME280;13688;53.154;18.136;2023-03-03T16:06:31;101083.44;;;1.32;79.43
25869;BME280;13688;53.154;18.136;2023-03-03T16:23:50;101070.36;;;1.01;80.44
25869;BME280;13688;53.154;18.136;2023-03-03T16:29:39;101077.68;;;0.93;80.97
25869;BME280;13688;53.154;18.136;2023-03-03T16:35:18;101076.98;;;0.88;81.56
25869;BME280;13688;53.154;18.136;2023-03-03T16:40:46;101078.31;;;0.73;82.01
25869;BME280;13688;53.154;18.136;2023-03-03T16:51:58;101079.68;;;0.59;82.97
25869;BME280;13688;53.154;18.136;2023-03-03T17:03:14;101073.22;;;0.39;83.59
25869;BME280;13688;53.154;18.136;2023-03-03T17:20:31;101078.36;;;0.14;84.72
25869;BME280;13688;53.154;18.136;2023-03-03T17:26:44;101072.37;;;0.08;85.07
25869;BME280;13688;53.154;18.136;2023-03-03T17:55:58;101048.28;;;-0.13;86.86
25869;BME280;13688;53.154;18.136;2023-03-03T18:18:58;101032.33;;;-0.10;88.19
25869;BME280;13688;53.154;18.136;2023-03-03T18:24:35;101033.44;;;-0.17;88.94
25869;BME280;13688;53.154;18.136;2023-03-03T18:35:48;101011.38;;;-0.16;89.39
25869;BME280;13688;53.154;18.136;2023-03-03T18:41:30;101004.00;;;-0.05;89.56
25869;BME280;13688;53.154;18.136;2023-03-03T18:46:51;101001.95;;;0.05;89.59
25869;BME280;13688;53.154;18.136;2023-03-03T18:52:34;101000.70;;;0.17;89.40
25869;BME280;13688;53.154;18.136;2023-03-03T19:09:42;100981.58;;;0.37;88.05
25869;BME280;13688;53.154;18.136;2023-03-03T19:15:06;100962.94;;;0.41;87.60
25869;BME280;13688;53.154;18.136;2023-03-03T19:20:52;100966.39;;;0.43;87.23
25869;BME280;13688;53.154;18.136;2023-03-03T19:26:43;100966.20;;;0.49;86.92
25869;BME280;13688;53.154;18.136;2023-03-03T19:32:27;100961.55;;;0.56;86.58
25869;BME280;13688;53.154;18.136;2023-03-03T19:38:24;100949.05;;;0.61;86.23
25869;BME280;13688;53.154;18.136;2023-03-03T20:08:20;100891.88;;;0.82;85.19
25869;BME280;13688;53.154;18.136;2023-03-03T20:13:07;100882.96;;;0.84;85.12
25869;BME280;13688;53.154;18.136;2023-03-03T20:36:24;100856.02;;;0.98;84.28
25869;BME280;13688;53.154;18.136;2023-03-03T20:42:24;100859.62;;;0.96;83.92
25869;BME280;13688;53.154;18.136;2023-03-03T20:48:22;100860.59;;;0.93;83.87
25869;BME280;13688;53.154;18.136;2023-03-03T20:53:50;100856.34;;;0.89;84.01
25869;BME280;13688;53.154;18.136;2023-03-03T21:05:20;100835.55;;;0.78;84.35
25869;BME280;13688;53.154;18.136;2023-03-03T21:10:44;100833.98;;;0.73;84.54
25869;BME280;13688;53.154;18.136;2023-03-03T21:21:48;100799.78;;;0.67;84.99
25869;BME280;13688;53.154;18.136;2023-03-03T21:27:23;100817.50;;;0.65;85.25
25869;BME280;13688;53.154;18.136;2023-03-03T21:32:51;100806.86;;;0.66;85.37
25869;BME280;13688;53.154;18.136;2023-03-03T21:38:30;100818.28;;;0.68;85.35
25869;BME280;13688;53.154;18.136;2023-03-03T21:43:53;100818.22;;;0.70;85.33
25869;BME280;13688;53.154;18.136;2023-03-03T21:49:17;100827.08;;;0.69;85.27
25869;BME280;13688;53.154;18.136;2023-03-03T21:54:42;100803.20;;;0.70;85.10
25869;BME280;13688;53.154;18.136;2023-03-03T22:00:08;100821.73;;;0.70;84.92
25869;BME280;13688;53.154;18.136;2023-03-03T22:05:31;100800.44;;;0.73;84.77
25869;BME280;13688;53.154;18.136;2023-03-03T22:10:56;100812.75;;;0.74;84.64
25869;BME280;13688;53.154;18.136;2023-03-03T22:16:22;100803.88;;;0.75;84.55
25869;BME280;13688;53.154;18.136;2023-03-03T22:21:46;100811.83;;;0.75;84.47
25869;BME280;13688;53.154;18.136;2023-03-03T22:27:08;100794.16;;;0.76;84.44
25869;BME280;13688;53.154;18.136;2023-03-03T22:32:31;100789.79;;;0.75;84.50
25869;BME280;13688;53.154;18.136;2023-03-03T22:37:55;100814.47;;;0.75;84.59
25869;BME280;13688;53.154;18.136;2023-03-03T22:43:18;100788.00;;;0.75;84.70
25869;BME280;13688;53.154;18.136;2023-03-03T22:48:43;100770.46;;;0.73;84.78
25869;BME280;13688;53.154;18.136;2023-03-03T22:54:06;100767.81;;;0.73;84.83
25869;BME280;13688;53.154;18.136;2023-03-03T22:59:28;100758.09;;;0.73;84.88
25869;BME280;13688;53.154;18.136;2023-03-03T23:04:51;100737.78;;;0.74;84.79
25869;BME280;13688;53.154;18.136;2023-03-03T23:10:15;100733.35;;;0.74;84.73
25869;BME280;13688;53.154;18.136;2023-03-03T23:15:39;100720.12;;;0.74;84.64
25869;BME280;13688;53.154;18.136;2023-03-03T23:21:03;100710.40;;;0.75;84.56
25869;BME280;13688;53.154;18.136;2023-03-03T23:26:27;100699.88;;;0.73;84.47
25869;BME280;13688;53.154;18.136;2023-03-03T23:31:51;100687.50;;;0.74;84.44
25869;BME280;13688;53.154;18.136;2023-03-03T23:37:15;100686.52;;;0.76;84.38
25869;BME280;13688;53.154;18.136;2023-03-03T23:42:39;100680.20;;;0.80;84.25
25869;BME280;13688;53.154;18.136;2023-03-03T23:48:03;100671.21;;;0.84;84.06
25869;BME280;13688;53.154;18.136;2023-03-03T23:53:29;100664.03;;;0.88;83.72
25869;BME280;13688;53.154;18.136;2023-03-03T23:58:53;100646.44;;;0.87;83.45
